Time;durP1;ratioP1;P1;durP2;ratioP2;P2;SDS_P1;SDS_P2;PMS_P1;PMS_P2;Temp;Humidity;BMP_temperature;BMP_pressure;BME280_temperature;BME280_humidity;BME280_pressure;Samples;Min_cycle;Max_cycle;Signal;HPM_P1;HPM_P2
2022/01/22 00:01:48;;;;;;;21.85;2.85;;;7.20;99.90;;;;;;5048789;28;20505;-66
2022/01/22 00:04:14;;;;;;;23.50;3.15;;;7.20;99.90;;;;;;5047603;28;20132;-66
2022/01/22 00:06:39;;;;;;;21.90;3.33;;;7.20;99.90;;;;;;5032253;28;20029;-66
2022/01/22 00:09:06;;;;;;;23.05;3.88;;;7.20;99.90;;;;;;5048564;28;20049;-66
2022/01/22 00:11:37;;;;;;;24.90;4.10;;;7.20;99.90;;;;;;5051459;28;20390;-66
2022/01/22 00:16:47;;;;;;;20.52;3.22;;;8.10;99.90;;;;;;5052086;28;20048;-66
2022/01/22 00:19:13;;;;;;;17.35;2.60;;;7.20;99.90;;;;;;5049022;28;20051;-66
2022/01/22 00:21:39;;;;;;;16.05;3.00;;;7.20;99.90;;;;;;5051586;28;20457;-66
2022/01/22 00:24:08;;;;;;;28.30;3.42;;;7.20;99.90;;;;;;5042694;28;20041;-66
2022/01/22 00:26:33;;;;;;;17.27;2.88;;;7.10;99.90;;;;;;5029297;28;20049;-65
2022/01/22 00:28:59;;;;;;;20.48;3.22;;;7.40;99.90;;;;;;5041096;28;20477;-66
2022/01/22 00:31:25;;;;;;;13.50;2.50;;;7.10;99.90;;;;;;5049830;28;20041;-66
2022/01/22 00:33:50;;;;;;;19.38;2.95;;;7.10;99.90;;;;;;5048238;28;20098;-66
2022/01/22 00:36:16;;;;;;;18.63;2.83;;;7.20;99.90;;;;;;5050351;28;20414;-66
2022/01/22 00:38:42;;;;;;;25.20;3.53;;;7.10;99.90;;;;;;5052934;28;20060;-66
2022/01/22 00:41:07;;;;;;;27.70;3.63;;;7.10;99.90;;;;;;5048916;28;20052;-66
2022/01/22 00:43:33;;;;;;;19.85;3.28;;;7.10;99.90;;;;;;5049275;28;20612;-66
2022/01/22 00:45:59;;;;;;;24.40;3.40;;;7.10;99.90;;;;;;5049480;28;20055;-66
2022/01/22 00:48:25;;;;;;;26.52;3.33;;;7.10;99.90;;;;;;5046991;28;20052;-66
2022/01/22 00:50:54;;;;;;;24.90;3.13;;;7.10;99.90;;;;;;5048720;28;20053;-65
2022/01/22 00:53:20;;;;;;;15.15;2.38;;;7.20;99.90;;;;;;5049245;28;20045;-66
2022/01/22 00:55:46;;;;;;;13.93;2.50;;;7.10;99.90;;;;;;5048951;28;20052;-66
2022/01/22 00:58:12;;;;;;;13.35;2.50;;;7.10;99.90;;;;;;5047755;28;20126;-66
2022/01/22 01:00:37;;;;;;;12.30;2.10;;;7.10;99.90;;;;;;5043756;28;20104;-67
2022/01/22 01:03:03;;;;;;;15.65;2.50;;;7.20;99.90;;;;;;5049481;28;20040;-65
2022/01/22 01:05:29;;;;;;;13.18;2.45;;;7.10;99.90;;;;;;5050678;28;20116;-66
2022/01/22 01:07:55;;;;;;;16.48;2.30;;;7.10;99.90;;;;;;5047488;28;20122;-66
2022/01/22 01:10:21;;;;;;;13.10;2.45;;;7.10;99.90;;;;;;5049991;28;20120;-65
2022/01/22 01:12:49;;;;;;;12.25;2.40;;;7.10;99.90;;;;;;5048005;28;20052;-65
2022/01/22 01:23:26;;;;;;;20.80;3.40;;;7.10;99.90;;;;;;5047338;28;20452;-66
2022/01/22 01:34:25;;;;;;;15.35;2.55;;;7.20;99.90;;;;;;5042878;28;20045;-65
2022/01/22 01:36:51;;;;;;;14.00;1.92;;;7.20;99.90;;;;;;5047050;28;20045;-66
2022/01/22 01:39:27;;;;;;;12.30;2.55;;;8.10;99.90;;;;;;5047777;28;20045;-66
2022/01/22 01:42:01;;;;;;;7.85;1.70;;;7.20;99.90;;;;;;5047858;28;20045;-66
2022/01/22 01:44:27;;;;;;;9.52;2.50;;;7.20;99.90;;;;;;5047459;28;20040;-66
2022/01/22 01:46:59;;;;;;;12.95;2.10;;;7.20;99.90;;;;;;5047567;28;20115;-65
2022/01/22 01:49:26;;;;;;;8.75;2.13;;;7.20;99.90;;;;;;5047521;28;20041;-66
2022/01/22 01:51:54;;;;;;;10.93;2.08;;;7.20;99.90;;;;;;5046241;28;20037;-65
2022/01/22 01:59:33;;;;;;;12.05;1.90;;;7.10;99.90;;;;;;5047384;28;20052;-66
2022/01/22 02:01:58;;;;;;;9.77;1.75;;;7.10;99.90;;;;;;5046608;28;20047;-66
2022/01/22 02:04:24;;;;;;;15.25;2.20;;;7.10;99.90;;;;;;5048393;28;20033;-66
2022/01/22 02:06:50;;;;;;;10.05;2.38;;;7.10;99.90;;;;;;5041050;28;20036;-65
2022/01/22 02:09:16;;;;;;;11.15;2.17;;;7.10;99.90;;;;;;5047745;28;20394;-66
2022/01/22 02:11:43;;;;;;;12.55;2.58;;;7.10;99.90;;;;;;5047136;28;20044;-65
2022/01/22 02:23:30;;;;;;;17.08;2.60;;;7.10;99.90;;;;;;5049885;28;20048;-66
2022/01/22 02:25:09;;;;;;;13.20;2.40;;;7.10;99.90;;;;;;5050917;28;20096;-65
2022/01/22 02:27:34;;;;;;;9.93;2.30;;;7.10;99.90;;;;;;5050241;28;20041;-65
2022/01/22 02:30:00;;;;;;;13.63;2.30;;;7.10;99.90;;;;;;5050524;28;20041;-65
2022/01/22 02:32:55;;;;;;;12.13;2.17;;;7.10;99.90;;;;;;5050374;28;20430;-65
2022/01/22 02:35:29;;;;;;;13.50;2.15;;;7.10;99.90;;;;;;5050506;28;20520;-65
2022/01/22 02:38:01;;;;;;;10.23;2.10;;;7.10;99.90;;;;;;5051408;28;20048;-65
2022/01/22 02:40:31;;;;;;;10.85;2.13;;;7.00;99.90;;;;;;5053214;28;20056;-66
2022/01/22 02:43:01;;;;;;;13.55;2.42;;;7.00;99.90;;;;;;5052764;28;20496;-66
2022/01/22 02:45:27;;;;;;;9.20;2.15;;;7.00;99.90;;;;;;5052241;28;20053;-66
2022/01/22 02:47:54;;;;;;;12.60;2.38;;;7.00;99.90;;;;;;5049713;28;20041;-65
2022/01/22 02:50:20;;;;;;;9.75;2.20;;;7.00;99.90;;;;;;5037986;28;20132;-67
2022/01/22 02:52:47;;;;;;;12.60;2.95;;;7.10;99.90;;;;;;5031540;28;20046;-65
2022/01/22 02:55:13;;;;;;;11.63;2.40;;;7.10;99.90;;;;;;5042145;28;20095;-65
2022/01/22 02:57:42;;;;;;;9.88;2.10;;;7.00;99.90;;;;;;5049863;28;20098;-66
2022/01/22 03:00:12;;;;;;;9.75;2.60;;;7.00;99.90;;;;;;5050226;28;20127;-65
2022/01/22 03:02:38;;;;;;;8.02;2.40;;;7.00;99.90;;;;;;5048828;28;20037;-65
2022/01/22 03:05:06;;;;;;;11.52;2.35;;;7.00;99.90;;;;;;5048792;28;20179;-66
2022/01/22 03:07:32;;;;;;;8.55;2.15;;;7.00;99.90;;;;;;5066003;28;20052;-65
2022/01/22 03:10:01;;;;;;;4.68;1.77;;;7.00;99.90;;;;;;5050023;28;20045;-66
2022/01/22 03:27:59;;;;;;;11.10;1.90;;;7.00;99.90;;;;;;5049998;28;20163;-66
2022/01/22 03:30:25;;;;;;;16.45;2.55;;;7.00;99.90;;;;;;5050600;28;20518;-66
2022/01/22 03:32:54;;;;;;;11.75;2.25;;;7.00;99.90;;;;;;5049306;28;20047;-66
2022/01/22 03:37:51;;;;;;;9.15;2.20;;;7.00;99.90;;;;;;5049992;28;20563;-66
2022/01/22 03:40:21;;;;;;;12.80;2.22;;;7.00;99.90;;;;;;5032733;28;20163;-65
2022/01/22 03:42:47;;;;;;;9.63;2.67;;;7.00;99.90;;;;;;5049347;28;20040;-66
2022/01/22 03:45:13;;;;;;;11.82;2.20;;;7.00;99.90;;;;;;5050553;28;20048;-66
2022/01/22 03:47:40;;;;;;;11.35;2.40;;;7.00;99.90;;;;;;5049326;28;20037;-66
2022/01/22 03:50:07;;;;;;;13.75;2.47;;;6.90;99.90;;;;;;5049373;28;20343;-65
2022/01/22 03:52:33;;;;;;;9.38;2.28;;;7.00;99.90;;;;;;5050449;28;20346;-66
2022/01/22 03:54:58;;;;;;;5.25;1.92;;;7.00;99.90;;;;;;5049635;28;20095;-65
2022/01/22 03:57:25;;;;;;;11.55;2.00;;;7.00;99.90;;;;;;5051626;28;20448;-66
2022/01/22 03:59:53;;;;;;;9.20;2.00;;;7.00;99.90;;;;;;5049679;28;20044;-66
2022/01/22 04:04:57;;;;;;;12.15;2.10;;;6.90;99.90;;;;;;5062679;28;20581;-66
2022/01/22 04:10:09;;;;;;;12.45;2.33;;;6.90;99.90;;;;;;5049399;28;20413;-66
2022/01/22 04:12:57;;;;;;;17.00;3.08;;;6.90;99.90;;;;;;5049636;28;20124;-65
2022/01/22 04:15:26;;;;;;;9.55;2.60;;;6.90;99.90;;;;;;5049794;28;20081;-66
2022/01/22 04:26:15;;;;;;;10.60;2.67;;;6.90;99.90;;;;;;5049054;28;20091;-65
2022/01/22 04:28:41;;;;;;;9.65;2.38;;;6.90;99.90;;;;;;5048649;28;20049;-65
2022/01/22 04:31:07;;;;;;;10.70;2.10;;;6.90;99.90;;;;;;5049998;28;20033;-65
2022/01/22 04:33:33;;;;;;;9.90;1.80;;;6.90;99.90;;;;;;5046027;28;20041;-65
2022/01/22 04:35:59;;;;;;;6.68;1.48;;;6.90;99.90;;;;;;5048293;28;20055;-65
2022/01/22 04:38:24;;;;;;;12.48;2.00;;;6.90;99.90;;;;;;5048802;28;20047;-65
2022/01/22 04:40:50;;;;;;;7.32;2.15;;;6.90;99.90;;;;;;5038879;28;20041;-65
2022/01/22 04:43:15;;;;;;;10.38;1.80;;;6.90;99.90;;;;;;5046926;28;20048;-66
2022/01/22 04:55:48;;;;;;;9.18;1.70;;;6.90;99.90;;;;;;5035344;28;20056;-65
2022/01/22 04:58:14;;;;;;;7.95;1.50;;;6.90;99.90;;;;;;5030839;28;20497;-65
2022/01/22 05:00:43;;;;;;;6.72;1.65;;;6.90;99.90;;;;;;5048304;28;20033;-65
2022/01/22 05:03:09;;;;;;;12.73;2.03;;;6.90;99.90;;;;;;5048041;28;20040;-65
2022/01/22 05:05:35;;;;;;;7.35;1.80;;;6.90;99.90;;;;;;5048806;28;20037;-65
2022/01/22 05:08:01;;;;;;;11.05;1.80;;;6.90;99.90;;;;;;5049369;28;20531;-65
2022/01/22 05:10:27;;;;;;;9.05;1.80;;;6.90;99.90;;;;;;5049279;28;20374;-66
2022/01/22 05:12:53;;;;;;;11.80;2.08;;;6.80;99.90;;;;;;5045997;28;20330;-66
2022/01/22 05:15:20;;;;;;;9.02;2.00;;;6.90;99.90;;;;;;5063165;28;20060;-65
2022/01/22 05:17:47;;;;;;;10.23;2.35;;;6.90;99.90;;;;;;5047898;28;20405;-65
2022/01/22 05:20:26;;;;;;;5.97;1.80;;;7.00;99.90;;;;;;5048609;28;20131;-66
2022/01/22 05:25:39;;;;;;;12.70;2.35;;;7.00;99.90;;;;;;5048796;28;20049;-65
2022/01/22 05:28:59;;;;;;;10.35;2.40;;;6.90;99.90;;;;;;5047355;28;20478;-65
2022/01/22 05:31:30;;;;;;;12.50;2.30;;;6.90;99.90;;;;;;5028964;28;20046;-66
2022/01/22 05:39:21;;;;;;;7.95;2.20;;;6.90;99.90;;;;;;5047857;28;20057;-65
2022/01/22 05:41:47;;;;;;;12.45;2.20;;;6.90;99.90;;;;;;5048914;28;20497;-66
2022/01/22 05:44:13;;;;;;;9.27;1.88;;;6.90;99.90;;;;;;5047466;28;20382;-65
2022/01/22 05:46:39;;;;;;;11.45;1.90;;;6.90;99.90;;;;;;5048606;28;20128;-65
2022/01/22 05:49:05;;;;;;;10.85;2.17;;;6.90;99.90;;;;;;5046083;28;20117;-65
2022/01/22 05:51:31;;;;;;;8.80;1.80;;;6.90;99.90;;;;;;5048653;28;20079;-65
2022/01/22 05:59:36;;;;;;;11.63;1.83;;;6.90;99.90;;;;;;5055894;28;20081;-65
2022/01/22 06:02:06;;;;;;;16.67;2.10;;;6.90;99.90;;;;;;5027023;28;20049;-65
2022/01/22 06:04:32;;;;;;;15.50;2.28;;;6.90;99.90;;;;;;5037358;28;20346;-65
2022/01/22 06:06:59;;;;;;;12.02;2.85;;;6.80;99.90;;;;;;5049522;28;20060;-65
2022/01/22 06:09:25;;;;;;;19.52;2.30;;;6.80;99.90;;;;;;5047915;28;20045;-65
2022/01/22 06:14:32;;;;;;;12.18;2.22;;;6.90;99.90;;;;;;5048528;28;20370;-67
2022/01/22 06:16:58;;;;;;;11.30;2.40;;;6.90;99.90;;;;;;5048258;28;20054;-65
2022/01/22 06:19:25;;;;;;;13.80;2.28;;;6.90;99.90;;;;;;5046410;28;20068;-65
2022/01/22 06:21:51;;;;;;;11.30;2.63;;;6.90;99.90;;;;;;5046322;28;20059;-65
2022/01/22 06:24:18;;;;;;;12.07;2.72;;;6.90;99.90;;;;;;5039260;28;20512;-65
2022/01/22 06:26:44;;;;;;;8.20;2.10;;;6.90;99.90;;;;;;5032810;28;20690;-67
2022/01/22 06:29:09;;;;;;;11.98;2.83;;;6.80;99.90;;;;;;5034337;28;20041;-66
2022/01/22 06:31:36;;;;;;;13.15;2.30;;;6.90;99.90;;;;;;5035942;28;20056;-65
2022/01/22 06:34:03;;;;;;;4.22;1.92;;;6.90;99.90;;;;;;5033663;28;20448;-67
2022/01/22 06:36:29;;;;;;;6.72;1.73;;;6.80;99.90;;;;;;5047524;28;20115;-65
2022/01/22 06:39:16;;;;;;;8.70;2.15;;;6.80;99.90;;;;;;5046381;28;20507;-66
2022/01/22 06:41:46;;;;;;;8.13;1.98;;;6.80;99.90;;;;;;5047451;28;20048;-65
2022/01/22 06:44:23;;;;;;;7.57;1.80;;;6.80;99.90;;;;;;5047596;28;20049;-65
2022/01/22 06:46:54;;;;;;;5.07;2.40;;;6.80;99.90;;;;;;5046913;28;20049;-66
2022/01/22 06:49:20;;;;;;;9.25;2.20;;;6.80;99.90;;;;;;5047416;28;20045;-65
2022/01/22 06:51:46;;;;;;;9.35;2.00;;;6.80;99.90;;;;;;5047821;28;20056;-65
2022/01/22 06:54:14;;;;;;;6.75;2.15;;;6.80;99.90;;;;;;5047123;28;20045;-65
2022/01/22 06:56:40;;;;;;;8.75;1.88;;;6.80;99.90;;;;;;5047018;28;20053;-65
2022/01/22 06:59:08;;;;;;;10.40;2.33;;;6.80;99.90;;;;;;5049813;28;20052;-65
2022/01/22 07:01:34;;;;;;;9.32;1.83;;;6.70;99.90;;;;;;5050113;28;20036;-65
2022/01/22 07:04:00;;;;;;;9.30;2.00;;;6.70;99.90;;;;;;5050095;28;20044;-65
2022/01/22 07:06:26;;;;;;;10.60;1.83;;;6.70;99.90;;;;;;5051119;28;20111;-65
2022/01/22 07:08:52;;;;;;;7.35;1.88;;;6.70;99.90;;;;;;5049276;28;20508;-65
2022/01/22 07:11:17;;;;;;;8.80;1.98;;;6.70;99.90;;;;;;5050993;28;20044;-65
2022/01/22 07:13:43;;;;;;;7.63;2.35;;;6.70;99.90;;;;;;5049035;28;20043;-65
2022/01/22 07:16:09;;;;;;;6.78;2.30;;;6.70;99.90;;;;;;5050515;28;20045;-65
2022/01/22 07:18:35;;;;;;;9.25;2.03;;;6.70;99.90;;;;;;5048244;28;20436;-65
2022/01/22 07:21:20;;;;;;;7.97;2.35;;;6.70;99.90;;;;;;5049636;28;20037;-66
2022/01/22 07:26:15;;;;;;;6.03;2.13;;;6.70;99.90;;;;;;5048844;28;20060;-65
2022/01/22 07:28:41;;;;;;;9.70;2.30;;;6.70;99.90;;;;;;5048566;28;20045;-64
2022/01/22 07:31:07;;;;;;;11.40;2.85;;;6.70;99.90;;;;;;5050169;28;20087;-65
2022/01/22 07:33:36;;;;;;;11.43;2.95;;;6.70;99.90;;;;;;5050023;28;20045;-65
2022/01/22 07:36:03;;;;;;;10.32;2.80;;;6.70;99.90;;;;;;5048302;28;20047;-65
2022/01/22 07:38:29;;;;;;;16.73;2.67;;;6.70;99.90;;;;;;5049446;28;20053;-65
2022/01/22 07:40:55;;;;;;;8.32;2.08;;;6.60;99.90;;;;;;5049797;28;20095;-66
2022/01/22 07:43:20;;;;;;;11.98;2.50;;;6.70;99.90;;;;;;5049739;28;20124;-65
2022/01/22 07:45:46;;;;;;;7.97;2.47;;;6.60;99.90;;;;;;5050256;28;20041;-65
2022/01/22 07:48:12;;;;;;;6.13;2.38;;;6.60;99.90;;;;;;5049304;28;20462;-65
2022/01/22 07:50:37;;;;;;;7.45;2.35;;;6.60;99.90;;;;;;5033468;28;20053;-65
2022/01/22 07:53:03;;;;;;;6.43;2.20;;;6.70;99.90;;;;;;5050237;28;20382;-65
2022/01/22 07:55:29;;;;;;;9.18;3.05;;;6.70;99.90;;;;;;5048646;28;20405;-65
2022/01/22 07:57:55;;;;;;;6.35;1.90;;;7.20;99.90;;;;;;5048644;28;20048;-66
2022/01/22 08:00:21;;;;;;;6.28;2.10;;;6.70;99.90;;;;;;5051783;28;20476;-65
2022/01/22 08:02:47;;;;;;;7.38;1.98;;;6.70;99.90;;;;;;5047495;28;20492;-65
2022/01/22 08:05:12;;;;;;;6.95;2.03;;;6.70;99.90;;;;;;5050130;28;20140;-64
2022/01/22 08:07:41;;;;;;;9.55;1.85;;;6.70;99.90;;;;;;5030621;28;20071;-65
2022/01/22 08:10:10;;;;;;;4.70;2.42;;;6.70;99.90;;;;;;5027271;28;20371;-65
2022/01/22 08:12:39;;;;;;;8.23;2.20;;;6.70;99.90;;;;;;5029703;28;20046;-66
2022/01/22 08:15:06;;;;;;;7.35;1.90;;;6.70;99.90;;;;;;5048205;28;20052;-66
2022/01/22 08:17:32;;;;;;;5.35;1.85;;;6.60;99.90;;;;;;5048901;28;20266;-65
2022/01/22 08:19:57;;;;;;;7.53;2.15;;;6.70;99.90;;;;;;5048593;28;20119;-65
2022/01/22 08:22:23;;;;;;;8.07;1.90;;;6.70;99.90;;;;;;5050379;28;20055;-66
2022/01/22 08:24:52;;;;;;;5.18;1.73;;;6.70;99.90;;;;;;5049284;28;20041;-66
2022/01/22 08:29:44;;;;;;;5.93;1.50;;;6.80;99.90;;;;;;5048391;28;20401;-66
2022/01/22 08:32:29;;;;;;;4.55;1.58;;;6.70;99.90;;;;;;5048173;28;20044;-66
2022/01/22 08:37:40;;;;;;;5.90;1.77;;;6.80;99.90;;;;;;5048348;28;20053;-66
2022/01/22 08:40:07;;;;;;;8.52;2.00;;;6.80;99.90;;;;;;5048605;28;20351;-66
2022/01/22 08:42:33;;;;;;;8.48;1.73;;;6.80;99.90;;;;;;5030290;28;20136;-65
2022/01/22 08:44:58;;;;;;;7.28;2.65;;;6.80;99.90;;;;;;5030078;28;20124;-65
2022/01/22 08:47:24;;;;;;;9.65;2.30;;;7.10;99.90;;;;;;5048254;28;20500;-66
2022/01/22 08:49:50;;;;;;;8.57;1.85;;;6.80;99.90;;;;;;5047818;28;20115;-66
2022/01/22 08:52:24;;;;;;;9.95;2.10;;;6.80;99.90;;;;;;5048756;28;20041;-66
2022/01/22 08:54:49;;;;;;;11.00;1.98;;;6.90;99.90;;;;;;5049155;28;20045;-66
2022/01/22 08:57:15;;;;;;;8.73;1.70;;;6.90;99.90;;;;;;5046132;28;20508;-65
2022/01/22 08:59:42;;;;;;;8.77;2.15;;;6.90;99.90;;;;;;5047999;28;20102;-65
2022/01/22 09:02:07;;;;;;;7.97;2.22;;;6.90;99.90;;;;;;5047696;28;20049;-66
2022/01/22 09:04:33;;;;;;;7.53;2.00;;;6.90;99.90;;;;;;5043841;28;20132;-66
2022/01/22 09:07:00;;;;;;;12.60;2.35;;;6.90;99.90;;;;;;5048879;28;20128;-66
2022/01/22 09:09:26;;;;;;;4.50;1.52;;;6.90;99.90;;;;;;5048845;28;20037;-67
2022/01/22 09:11:52;;;;;;;8.40;1.50;;;7.00;99.90;;;;;;5029321;28;20055;-66
2022/01/22 09:14:19;;;;;;;7.72;1.58;;;6.90;99.90;;;;;;5048754;28;20056;-66
2022/01/22 09:16:46;;;;;;;9.48;1.67;;;6.90;99.90;;;;;;5046748;28;20040;-67
2022/01/22 09:19:12;;;;;;;5.00;1.60;;;6.90;99.90;;;;;;5047252;28;20052;-67
2022/01/22 09:21:41;;;;;;;10.27;2.05;;;7.00;99.90;;;;;;5048126;28;20478;-67
2022/01/22 09:24:09;;;;;;;6.32;2.03;;;7.00;99.90;;;;;;5038042;28;20440;-66
2022/01/22 09:26:35;;;;;;;6.47;1.80;;;7.00;99.90;;;;;;5046913;28;20389;-66
2022/01/22 09:29:02;;;;;;;11.27;2.10;;;7.00;99.90;;;;;;5046508;28;20041;-66
2022/01/22 09:31:29;;;;;;;10.52;2.30;;;7.00;99.90;;;;;;5047540;28;20049;-65
2022/01/22 09:33:57;;;;;;;8.27;2.25;;;7.00;99.90;;;;;;5046598;28;20066;-66
2022/01/22 09:36:24;;;;;;;7.00;2.20;;;7.00;99.90;;;;;;5047511;28;20041;-66
2022/01/22 09:38:50;;;;;;;6.18;2.00;;;7.00;99.90;;;;;;5047827;28;20128;-66
2022/01/22 09:41:17;;;;;;;8.68;2.15;;;7.50;99.90;;;;;;5047057;28;20506;-66
2022/01/22 09:43:43;;;;;;;8.43;2.00;;;7.10;99.90;;;;;;5048552;28;20040;-66
2022/01/22 09:46:09;;;;;;;7.93;2.30;;;7.10;99.90;;;;;;5043055;28;20056;-66
2022/01/22 09:48:42;;;;;;;10.75;2.22;;;7.10;99.90;;;;;;5045829;28;20175;-66
2022/01/22 09:51:09;;;;;;;7.47;2.15;;;7.10;99.90;;;;;;5047674;28;20047;-66
2022/01/22 09:53:35;;;;;;;8.38;2.40;;;7.10;99.90;;;;;;5047203;28;20049;-67
2022/01/22 09:56:01;;;;;;;7.55;2.47;;;7.10;99.90;;;;;;5046443;28;20053;-66
2022/01/22 09:58:26;;;;;;;8.20;2.50;;;7.10;99.90;;;;;;5047832;28;20055;-66
2022/01/22 10:00:52;;;;;;;14.15;2.83;;;7.10;99.90;;;;;;5046864;28;20393;-66
2022/01/22 10:03:20;;;;;;;8.82;2.10;;;7.20;99.90;;;;;;5047611;28;20071;-66
2022/01/22 10:05:47;;;;;;;6.55;2.20;;;7.20;99.90;;;;;;5047802;28;20040;-66
2022/01/22 10:08:31;;;;;;;7.03;2.28;;;7.20;99.90;;;;;;5047105;28;20052;-66
2022/01/22 10:11:00;;;;;;;6.95;2.03;;;7.20;99.90;;;;;;5047518;28;20055;-66
2022/01/22 10:13:42;;;;;;;6.90;2.00;;;7.30;99.90;;;;;;5058235;28;20501;-66
2022/01/22 10:16:16;;;;;;;3.63;1.80;;;7.40;99.90;;;;;;5056198;28;20370;-66
2022/01/22 10:18:42;;;;;;;6.82;2.03;;;7.50;99.90;;;;;;5046606;28;20508;-66
2022/01/22 10:21:11;;;;;;;9.07;2.10;;;7.50;99.90;;;;;;5048924;28;20037;-65
2022/01/22 10:23:39;;;;;;;8.27;2.05;;;7.50;99.90;;;;;;5047332;28;20401;-66
2022/01/22 10:26:12;;;;;;;6.50;2.08;;;7.50;99.90;;;;;;5045421;28;20045;-65
2022/01/22 10:28:49;;;;;;;7.13;2.30;;;7.50;99.90;;;;;;5026714;28;20055;-66
2022/01/22 10:31:25;;;;;;;5.55;2.05;;;7.50;99.90;;;;;;5028053;28;20046;-64
2022/01/22 10:34:08;;;;;;;10.15;2.20;;;7.50;99.90;;;;;;5029241;28;20041;-67
2022/01/22 10:36:34;;;;;;;8.23;2.60;;;7.50;99.90;;;;;;5030210;28;20037;-67
2022/01/22 10:39:00;;;;;;;7.15;2.00;;;7.50;99.90;;;;;;5030686;28;20049;-67
2022/01/22 10:41:34;;;;;;;9.02;2.45;;;7.50;99.90;;;;;;5030398;28;20061;-66
2022/01/22 10:44:01;;;;;;;8.50;2.13;;;7.50;99.90;;;;;;5031081;28;20045;-67
2022/01/22 10:46:43;;;;;;;6.32;2.20;;;7.50;99.90;;;;;;5031702;28;20053;-67
2022/01/22 10:49:23;;;;;;;4.85;2.30;;;7.50;99.90;;;;;;5030322;28;20057;-66
2022/01/22 10:51:50;;;;;;;10.95;2.95;;;7.50;99.90;;;;;;5030697;28;20417;-67
2022/01/22 10:54:17;;;;;;;10.65;2.20;;;7.50;99.90;;;;;;5029499;28;20061;-67
2022/01/22 10:56:44;;;;;;;10.70;2.30;;;7.50;99.90;;;;;;5029162;28;20064;-67
2022/01/22 10:59:11;;;;;;;9.98;2.20;;;7.50;99.90;;;;;;5030344;28;20421;-65
2022/01/22 11:01:43;;;;;;;11.55;2.67;;;7.50;99.90;;;;;;5028908;28;20052;-65
2022/01/22 11:04:18;;;;;;;10.35;2.50;;;7.50;99.90;;;;;;5029663;28;20053;-65
2022/01/22 11:06:53;;;;;;;9.85;2.40;;;7.50;99.90;;;;;;5030092;28;20076;-64
2022/01/22 11:09:20;;;;;;;10.30;2.47;;;7.50;99.90;;;;;;5029273;28;20489;-65
2022/01/22 11:11:46;;;;;;;11.00;2.42;;;7.50;99.90;;;;;;5030048;28;20296;-65
2022/01/22 11:14:12;;;;;;;11.55;3.20;;;7.50;99.90;;;;;;5032712;28;20041;-65
2022/01/22 11:16:40;;;;;;;11.10;2.85;;;7.50;99.90;;;;;;5033407;28;20054;-65
2022/01/22 11:19:09;;;;;;;8.88;2.42;;;7.50;99.90;;;;;;5031643;28;20184;-65
2022/01/22 11:21:40;;;;;;;14.85;3.30;;;7.50;99.90;;;;;;5030403;28;20080;-65
2022/01/22 11:24:17;;;;;;;9.27;2.67;;;8.30;99.90;;;;;;5030401;28;20145;-65
2022/01/22 11:26:57;;;;;;;9.50;3.00;;;7.50;99.90;;;;;;5028363;28;20060;-66
2022/01/22 11:29:29;;;;;;;13.55;2.95;;;7.50;99.90;;;;;;5030547;28;20255;-65
2022/01/22 11:31:56;;;;;;;8.18;3.03;;;7.50;99.90;;;;;;5029814;28;20458;-67
2022/01/22 11:34:25;;;;;;;11.20;2.47;;;7.50;99.90;;;;;;5031299;28;20056;-64
2022/01/22 11:37:15;;;;;;;10.20;2.78;;;7.60;99.90;;;;;;5041127;28;20047;-65
2022/01/22 11:39:41;;;;;;;12.85;3.00;;;7.50;99.90;;;;;;5038484;28;20053;-65
2022/01/22 11:42:08;;;;;;;10.32;3.20;;;7.50;99.90;;;;;;5047698;28;20481;-64
2022/01/22 11:45:02;;;;;;;10.05;3.60;;;7.50;99.90;;;;;;5049618;28;20393;-65
2022/01/22 11:47:27;;;;;;;13.85;3.33;;;7.60;99.90;;;;;;5049225;28;20056;-68
2022/01/22 11:50:03;;;;;;;14.57;3.60;;;7.60;99.90;;;;;;5043994;28;20044;-70
2022/01/22 11:52:33;;;;;;;14.55;3.38;;;7.60;99.90;;;;;;5028016;28;20371;-68
2022/01/22 11:55:07;;;;;;;12.93;3.38;;;7.60;99.90;;;;;;5045502;28;20052;-68
2022/01/22 11:57:33;;;;;;;14.25;3.05;;;7.60;99.90;;;;;;5046309;28;20057;-70
2022/01/22 12:00:27;;;;;;;11.52;2.75;;;7.60;99.90;;;;;;5043812;28;20037;-70
2022/01/22 12:03:08;;;;;;;14.23;3.33;;;7.60;99.90;;;;;;5036275;28;20051;-70
2022/01/22 12:05:54;;;;;;;12.25;3.00;;;7.60;99.90;;;;;;5028941;28;20041;-70
2022/01/22 12:08:23;;;;;;;;;;;7.60;99.90;;;;;;5026015;28;20057;-69
2022/01/22 12:16:38;;;;;;;10.57;3.80;;;8.20;99.90;;;;;;5045512;28;20052;-69
2022/01/22 12:19:09;;;;;;;12.95;3.80;;;7.60;99.90;;;;;;5036016;28;20061;-69
2022/01/22 12:21:38;;;;;;;16.38;4.03;;;7.60;99.90;;;;;;5045539;28;20052;-69
2022/01/22 12:24:10;;;;;;;12.68;3.70;;;7.70;99.90;;;;;;5043942;28;20057;-69
2022/01/22 12:26:39;;;;;;;16.92;4.20;;;7.70;99.90;;;;;;5061501;28;20109;-69
2022/01/22 12:29:27;;;;;;;13.95;4.10;;;7.70;99.90;;;;;;5044136;28;20068;-69
2022/01/22 12:32:17;;;;;;;15.40;3.90;;;7.70;99.90;;;;;;5047134;28;20140;-66
2022/01/22 12:34:58;;;;;;;13.32;4.10;;;7.70;99.90;;;;;;5047917;28;20056;-66
2022/01/22 12:37:25;;;;;;;15.60;4.20;;;7.70;99.90;;;;;;5048329;28;20045;-66
2022/01/22 12:39:54;;;;;;;17.50;4.57;;;7.70;99.90;;;;;;5046671;28;20509;-66
2022/01/22 12:42:45;;;;;;;20.58;4.45;;;7.70;99.90;;;;;;5046763;28;20053;-66
2022/01/22 12:45:10;;;;;;;13.60;4.13;;;7.70;99.90;;;;;;5048378;28;20045;-67
2022/01/22 12:47:37;;;;;;;14.32;4.30;;;7.70;99.90;;;;;;5052993;28;20161;-67
2022/01/22 12:50:08;;;;;;;18.75;5.50;;;7.80;99.90;;;;;;5057587;28;20421;-66
2022/01/22 12:52:34;;;;;;;16.42;4.47;;;7.80;99.90;;;;;;5069178;28;20392;-66
2022/01/22 12:55:13;;;;;;;13.43;4.38;;;7.80;99.90;;;;;;5060730;28;20037;-66
2022/01/22 12:57:41;;;;;;;13.90;4.25;;;7.80;99.90;;;;;;5027683;28;20048;-67
2022/01/22 13:00:14;;;;;;;11.23;3.80;;;7.80;99.90;;;;;;5045667;28;20132;-67
2022/01/22 13:02:54;;;;;;;12.18;3.90;;;7.90;99.90;;;;;;5046131;28;20055;-67
2022/01/22 13:05:21;;;;;;;16.55;3.80;;;7.90;99.90;;;;;;5047660;28;20155;-66
2022/01/22 13:07:53;;;;;;;15.88;4.03;;;7.90;99.90;;;;;;5046717;28;20053;-66
2022/01/22 13:10:27;;;;;;;12.15;3.30;;;7.90;99.90;;;;;;5047684;28;20056;-67
2022/01/22 13:12:56;;;;;;;13.45;4.28;;;7.90;99.90;;;;;;5047321;28;20067;-66
2022/01/22 13:15:22;;;;;;;16.00;4.03;;;7.80;99.90;;;;;;5046866;28;20041;-67
2022/01/22 13:17:56;;;;;;;19.88;4.20;;;7.80;99.90;;;;;;5047006;28;20140;-66
2022/01/22 13:20:25;;;;;;;11.35;3.33;;;7.80;99.90;;;;;;5048324;28;20055;-67
2022/01/22 13:22:51;;;;;;;18.33;4.00;;;7.80;99.90;;;;;;5047813;28;20131;-67
2022/01/22 13:25:17;;;;;;;13.05;3.00;;;7.80;99.90;;;;;;5047470;28;20156;-67
2022/01/22 13:27:59;;;;;;;11.00;3.00;;;7.80;99.90;;;;;;5047540;28;20048;-66
2022/01/22 13:30:32;;;;;;;13.93;3.22;;;7.80;99.90;;;;;;5048214;28;20045;-67
2022/01/22 13:33:06;;;;;;;12.00;2.97;;;7.80;99.90;;;;;;5041403;28;20398;-66
2022/01/22 13:35:49;;;;;;;8.25;2.83;;;8.00;99.90;;;;;;5028747;28;20090;-67
2022/01/22 13:49:09;;;;;;;11.20;2.78;;;8.50;99.90;;;;;;5025372;28;20077;-66
2022/01/22 13:51:37;;;;;;;13.90;2.88;;;7.60;99.90;;;;;;5028377;28;20546;-67
2022/01/22 13:54:03;;;;;;;10.13;3.03;;;7.60;99.90;;;;;;5026870;28;20096;-67
2022/01/22 13:56:53;;;;;;;11.20;3.00;;;7.60;99.90;;;;;;5043096;28;20467;-67
2022/01/22 13:59:21;;;;;;;10.40;2.90;;;7.50;99.90;;;;;;5026932;28;20061;-67
2022/01/22 14:04:37;;;;;;;13.10;2.55;;;7.60;99.90;;;;;;5027291;28;20393;-67
2022/01/22 14:07:15;;;;;;;10.15;2.30;;;7.50;99.90;;;;;;5028144;28;20451;-67
2022/01/22 14:10:14;;;;;;;10.75;2.75;;;7.50;99.90;;;;;;5030863;28;20056;-67
2022/01/22 14:12:59;;;;;;;10.15;2.88;;;7.50;99.90;;;;;;5030594;28;20156;-66
2022/01/22 14:15:41;;;;;;;10.68;3.35;;;7.50;99.90;;;;;;5031062;28;20053;-67
2022/01/22 14:18:19;;;;;;;11.35;2.60;;;7.50;99.90;;;;;;5031225;28;20041;-67
2022/01/22 14:21:18;;;;;;;11.95;3.03;;;7.50;99.90;;;;;;5014090;28;20049;-66
2022/01/22 14:23:45;;;;;;;9.63;2.05;;;7.50;99.90;;;;;;5027711;28;20478;-65
2022/01/22 14:26:33;;;;;;;10.30;2.50;;;7.40;99.90;;;;;;5029788;28;20049;-66
2022/01/22 14:29:06;;;;;;;13.88;2.85;;;7.40;99.90;;;;;;5029087;28;20583;-65
2022/01/22 14:31:35;;;;;;;9.23;2.30;;;7.50;99.90;;;;;;5030712;28;20045;-65
2022/01/22 14:34:06;;;;;;;8.00;2.13;;;7.50;99.90;;;;;;5030964;28;20045;-65
2022/01/22 14:36:38;;;;;;;9.82;2.95;;;7.40;99.90;;;;;;5031465;28;20136;-65
2022/01/22 14:44:47;;;;;;;11.88;2.47;;;7.40;99.90;;;;;;5030259;28;20463;-65
2022/01/22 14:47:28;;;;;;;8.48;2.70;;;7.40;99.90;;;;;;5030025;28;20060;-65
2022/01/22 14:50:06;;;;;;;7.40;2.22;;;7.30;99.90;;;;;;5028586;28;20057;-65
2022/01/22 14:52:31;;;;;;;6.90;1.90;;;7.40;99.90;;;;;;5030132;28;20045;-65
2022/01/22 14:55:00;;;;;;;8.93;2.30;;;7.40;99.90;;;;;;5029849;28;20132;-65
2022/01/22 14:57:32;;;;;;;14.73;2.30;;;7.50;99.90;;;;;;5030704;28;20108;-65
2022/01/22 15:00:04;;;;;;;9.07;2.20;;;7.50;99.90;;;;;;5030360;28;20045;-66
2022/01/22 15:02:29;;;;;;;8.68;2.35;;;7.40;99.90;;;;;;5031997;28;20121;-66
2022/01/22 15:04:55;;;;;;;10.73;2.22;;;7.40;99.90;;;;;;5029050;28;20517;-67
2022/01/22 15:07:20;;;;;;;8.48;2.20;;;7.50;99.90;;;;;;5031199;28;20072;-66